Time;durP1;ratioP1;P1;durP2;ratioP2;P2;SDS_P1;SDS_P2;PMS_P1;PMS_P2;Temp;Humidity;BMP_temperature;BMP_pressure;BME280_temperature;BME280_humidity;BME280_pressure;Samples;Min_cycle;Max_cycle;Signal;HPM_P1;HPM_P2
2022/11/05 00:19:05;;;;;;;36.77;24.90;;;;;;;8.56;99.93;97953.58;2169366;82;21048;-82
2022/11/05 00:25:15;;;;;;;39.23;25.90;;;;;;;8.52;100.00;97962.66;2170291;82;21039;-82
2022/11/05 00:28:14;;;;;;;40.43;25.47;;;;;;;8.49;99.91;97958.73;2171276;81;20973;-83
2022/11/05 00:31:14;;;;;;;41.77;25.07;;;;;;;8.46;99.92;97976.92;2172158;81;20914;-82
2022/11/05 00:34:15;;;;;;;48.90;26.70;;;;;;;8.44;99.80;97972.15;2171293;81;21015;-84
2022/11/05 00:37:15;;;;;;;42.47;27.43;;;;;;;8.41;99.94;97976.90;2170415;81;20922;-82
2022/11/05 00:40:15;;;;;;;40.50;25.03;;;;;;;8.43;100.00;97980.38;2169985;81;21350;-82
2022/11/05 00:46:35;;;;;;;42.00;25.90;;;;;;;8.47;100.00;97983.87;2170289;82;21007;-82
2022/11/05 00:49:35;;;;;;;44.03;25.27;;;;;;;8.47;100.00;97986.47;2170782;81;20925;-83
2022/11/05 00:52:54;;;;;;;43.30;26.47;;;;;;;8.48;100.00;98002.52;2172385;81;20913;-83
2022/11/05 00:55:54;;;;;;;42.53;25.37;;;;;;;8.47;100.00;98012.48;2173983;81;20969;-83
2022/11/05 00:58:55;;;;;;;46.83;27.17;;;;;;;8.45;100.00;98012.90;2170566;81;20902;-83
2022/11/05 01:01:55;;;;;;;42.23;26.17;;;;;;;8.47;100.00;98009.88;2171324;81;20921;-83
2022/11/05 01:04:55;;;;;;;39.60;25.53;;;;;;;8.49;100.00;98015.53;2172121;81;20989;-82
2022/11/05 01:07:56;;;;;;;38.87;24.47;;;;;;;8.50;100.00;98013.80;2170376;81;20954;-83
2022/11/05 01:10:56;;;;;;;35.40;24.10;;;;;;;8.50;99.92;98019.87;2170257;81;20930;-83
2022/11/05 01:13:57;;;;;;;50.30;27.23;;;;;;;8.53;99.86;98021.63;2171102;82;21005;-83
2022/11/05 01:16:57;;;;;;;39.47;24.57;;;;;;;8.57;100.00;98022.08;2170168;81;20977;-82
2022/11/05 01:19:57;;;;;;;45.37;26.47;;;;;;;8.62;99.97;98030.36;2171322;81;20961;-83
2022/11/05 01:22:58;;;;;;;44.07;25.63;;;;;;;8.62;100.00;98026.89;2170029;81;20969;-83
2022/11/05 01:25:58;;;;;;;43.23;26.70;;;;;;;8.62;99.82;98010.84;2173112;81;20981;-83
2022/11/05 01:28:59;;;;;;;38.53;25.50;;;;;;;8.66;99.65;98014.34;2172402;81;20992;-83
2022/11/05 01:31:59;;;;;;;43.83;26.03;;;;;;;8.69;99.54;98013.52;2172334;81;20949;-83
2022/11/05 01:34:59;;;;;;;40.50;26.33;;;;;;;8.71;99.61;98008.77;2169887;81;21036;-83
2022/11/05 01:38:00;;;;;;;46.07;27.67;;;;;;;8.73;99.38;98021.35;2170567;82;21009;-83
2022/11/05 01:41:00;;;;;;;46.53;26.60;;;;;;;8.69;99.06;98018.29;2171287;81;21289;-84
2022/11/05 01:44:02;;;;;;;42.13;25.83;;;;;;;8.62;99.01;98025.16;2170332;81;20946;-84
2022/11/05 01:47:01;;;;;;;41.83;26.90;;;;;;;8.60;99.23;98032.08;2172328;81;20997;-83
2022/11/05 01:50:01;;;;;;;42.37;24.70;;;;;;;8.63;99.41;98031.23;2170411;81;20937;-83
2022/11/05 01:53:02;;;;;;;42.97;26.53;;;;;;;8.65;99.59;98020.41;2170286;81;20995;-83
2022/11/05 01:56:02;;;;;;;44.93;27.00;;;;;;;8.67;99.49;98022.62;2171458;81;20893;-82
2022/11/05 01:59:03;;;;;;;46.93;27.57;;;;;;;8.69;99.71;98040.84;2171729;81;20921;-83
2022/11/05 02:02:03;;;;;;;41.57;27.10;;;;;;;8.69;99.64;98041.70;2171459;81;21372;-83
2022/11/05 02:05:03;;;;;;;40.07;27.77;;;;;;;8.70;99.75;98042.15;2171789;81;21047;-83
2022/11/05 02:08:04;;;;;;;48.27;28.90;;;;;;;8.70;99.91;98051.25;2172415;81;20921;-82
2022/11/05 02:11:04;;;;;;;43.30;28.00;;;;;;;8.65;99.74;98047.72;2172161;81;20925;-82
2022/11/05 02:14:05;;;;;;;41.40;26.67;;;;;;;8.69;100.00;98054.72;2171738;81;20965;-84
2022/11/05 02:17:05;;;;;;;42.73;27.60;;;;;;;8.71;100.00;98048.22;2170136;81;21007;-83
2022/11/05 02:20:06;;;;;;;43.53;27.73;;;;;;;8.72;99.82;98045.62;2171991;82;20950;-83
2022/11/05 02:23:06;;;;;;;41.77;26.97;;;;;;;8.71;99.78;98058.20;2171259;81;20910;-83
2022/11/05 02:26:06;;;;;;;54.67;30.17;;;;;;;8.69;99.91;98058.62;2170902;81;20973;-83
2022/11/05 02:29:07;;;;;;;42.33;27.00;;;;;;;8.70;99.79;98065.99;2170484;81;20962;-83
2022/11/05 02:32:07;;;;;;;41.83;27.27;;;;;;;8.69;99.72;98073.36;2171200;81;20989;-83
2022/11/05 02:35:07;;;;;;;46.63;27.50;;;;;;;8.68;99.81;98067.28;2170695;81;21400;-83
2022/11/05 02:38:08;;;;;;;42.53;28.03;;;;;;;8.68;99.94;98060.78;2170047;81;20973;-84
2022/11/05 02:41:08;;;;;;;44.93;29.63;;;;;;;8.64;99.67;98065.48;2170834;81;20953;-84
2022/11/05 02:44:09;;;;;;;42.90;27.13;;;;;;;8.60;99.76;98067.63;2171931;81;21352;-84
2022/11/05 02:47:09;;;;;;;42.43;27.90;;;;;;;8.56;99.80;98075.84;2171217;81;20905;-83
2022/11/05 02:50:09;;;;;;;46.73;27.33;;;;;;;8.56;99.95;98074.97;2170070;81;20929;-82
2022/11/05 02:53:10;;;;;;;50.47;28.33;;;;;;;8.56;99.93;98073.67;2169794;81;20960;-84
2022/11/05 02:56:10;;;;;;;40.63;26.60;;;;;;;8.55;99.95;98076.70;2169706;81;20937;-83
2022/11/05 02:59:11;;;;;;;42.10;28.27;;;;;;;8.55;100.00;98081.91;2170690;81;20965;-83
2022/11/05 03:02:11;;;;;;;43.30;27.97;;;;;;;8.57;100.00;98089.72;2171984;81;20992;-83
2022/11/05 03:05:11;;;;;;;46.77;29.17;;;;;;;8.58;100.00;98087.56;2169644;81;21067;-83
2022/11/05 03:08:12;;;;;;;45.93;30.63;;;;;;;8.61;100.00;98086.28;2170692;81;20973;-84
2022/11/05 03:11:12;;;;;;;50.20;31.60;;;;;;;8.62;100.00;98098.42;2170054;81;21003;-83
2022/11/05 03:14:13;;;;;;;44.70;28.83;;;;;;;8.63;100.00;98098.87;2170504;81;21293;-83
2022/11/05 03:17:13;;;;;;;40.80;25.57;;;;;;;8.60;99.60;98107.52;2170619;81;20921;-83
2022/11/05 03:20:16;;;;;;;45.33;27.10;;;;;;;8.56;99.47;98115.28;2171347;81;20956;-84
2022/11/05 03:23:17;;;;;;;45.60;27.37;;;;;;;8.54;99.67;98119.61;2170940;81;20893;-84
2022/11/05 03:26:17;;;;;;;43.30;26.93;;;;;;;8.52;99.89;98115.69;2170943;81;20950;-83
2022/11/05 03:29:17;;;;;;;47.83;28.20;;;;;;;8.53;99.96;98121.77;2170469;82;20968;-83
2022/11/05 03:32:19;;;;;;;44.03;27.27;;;;;;;8.51;100.00;98128.69;2171049;81;20953;-83
2022/11/05 03:35:18;;;;;;;42.63;26.30;;;;;;;8.54;100.00;98136.09;2170827;81;21049;-83
2022/11/05 03:38:19;;;;;;;40.23;26.57;;;;;;;8.58;100.00;98135.69;2170602;81;20929;-83
2022/11/05 03:41:19;;;;;;;40.10;26.37;;;;;;;8.58;100.00;98149.98;2171590;82;20937;-82
2022/11/05 03:44:19;;;;;;;42.13;25.43;;;;;;;8.61;100.00;98146.11;2170271;82;21000;-82
2022/11/05 03:47:20;;;;;;;40.13;25.63;;;;;;;8.64;100.00;98150.04;2171075;81;20933;-82
2022/11/05 03:50:20;;;;;;;37.40;23.93;;;;;;;8.64;100.00;98144.84;2170212;81;20998;-84
2022/11/05 03:53:21;;;;;;;37.17;24.97;;;;;;;8.62;99.90;98150.45;2170281;81;20929;-83
2022/11/05 03:56:21;;;;;;;37.60;24.63;;;;;;;8.63;99.96;98155.67;2169180;81;21356;-83
2022/11/05 03:59:21;;;;;;;41.87;26.43;;;;;;;8.66;99.91;98160.46;2169349;81;20988;-83
2022/11/05 04:02:22;;;;;;;36.80;25.53;;;;;;;8.67;99.77;98163.11;2169552;81;20996;-83
2022/11/05 04:05:22;;;;;;;39.53;24.00;;;;;;;8.66;99.59;98157.43;2172084;81;21383;-82
2022/11/05 04:15:00;;;;;;;35.47;24.53;;;;;;;8.67;99.27;98156.60;2168879;82;20977;-83
2022/11/05 04:18:01;;;;;;;36.70;25.03;;;;;;;8.65;99.52;98150.91;2171287;81;20980;-81
2022/11/05 04:24:20;;;;;;;35.00;23.37;;;;;;;8.63;99.50;98164.78;2171529;82;20999;-83
2022/11/05 04:27:20;;;;;;;31.17;22.20;;;;;;;8.62;99.46;98171.27;2171547;81;20985;-83
2022/11/05 04:30:21;;;;;;;32.67;22.13;;;;;;;8.65;99.78;98168.69;2172838;81;20917;-82
2022/11/05 04:33:21;;;;;;;27.67;19.47;;;;;;;8.68;99.75;98170.05;2172889;81;20976;-82
2022/11/05 04:36:21;;;;;;;27.87;19.60;;;;;;;8.73;99.96;98169.66;2172740;81;21071;-83
2022/11/05 04:39:22;;;;;;;27.60;20.23;;;;;;;8.81;99.89;98179.70;2172832;81;21016;-83
2022/11/05 04:42:22;;;;;;;29.73;20.23;;;;;;;8.82;99.55;98189.69;2173207;81;20969;-84
2022/11/05 04:45:23;;;;;;;19.53;14.77;;;;;;;8.80;99.32;98194.87;2172720;81;20976;-83
2022/11/05 04:48:23;;;;;;;21.13;17.00;;;;;;;8.83;99.63;98189.70;2172377;82;21025;-82
2022/11/05 04:51:25;;;;;;;19.57;15.63;;;;;;;8.88;99.55;98190.61;2171717;81;21360;-82
2022/11/05 04:54:24;;;;;;;22.80;16.67;;;;;;;8.91;99.42;98197.14;2172553;81;20941;-83
2022/11/05 04:57:24;;;;;;;24.20;17.33;;;;;;;8.94;99.39;98202.37;2171950;81;20973;-82
2022/11/05 05:00:28;;;;;;;11.63;10.43;;;;;;;8.99;98.99;98211.95;2169560;81;20969;-82
2022/11/05 05:03:28;;;;;;;15.53;11.97;;;;;;;9.04;99.28;98202.44;2170252;81;21004;-82
2022/11/05 05:06:29;;;;;;;11.20;10.20;;;;;;;9.11;99.11;98204.23;2170081;82;21052;-82
2022/11/05 05:09:29;;;;;;;14.17;10.13;;;;;;;9.14;98.86;98199.91;2170764;81;20975;-83
2022/11/05 05:12:30;;;;;;;10.87;9.97;;;;;;;9.19;98.74;98207.76;2170572;81;20973;-83
2022/11/05 05:15:30;;;;;;;11.37;10.27;;;;;;;9.23;98.88;98209.09;2171196;81;20996;-82
2022/11/05 05:18:30;;;;;;;10.57;9.57;;;;;;;9.29;98.73;98205.66;2170243;81;20940;-82
2022/11/05 05:21:41;;;;;;;10.67;9.60;;;;;;;9.32;98.35;98208.28;2170532;81;21351;-83
2022/11/05 05:24:40;;;;;;;10.77;9.80;;;;;;;9.35;98.10;98203.52;2170560;82;20992;-82
2022/11/05 05:27:41;;;;;;;11.53;10.47;;;;;;;9.37;97.88;98207.88;2173394;81;21731;-83
2022/11/05 05:30:41;;;;;;;11.30;10.30;;;;;;;9.40;97.81;98210.50;2176966;82;21032;-84
2022/11/05 05:33:42;;;;;;;12.77;10.83;;;;;;;9.41;97.76;98217.46;2173144;82;20940;-83
2022/11/05 05:36:42;;;;;;;11.20;10.20;;;;;;;9.46;97.66;98224.87;2168943;81;21032;-83
2022/11/05 05:39:46;;;;;;;12.67;11.57;;;;;;;9.48;97.37;98226.19;2169291;81;20921;-83
2022/11/05 05:42:46;;;;;;;13.25;11.93;;;;;;;9.49;97.07;98226.19;2169210;81;21447;-84
2022/11/05 05:45:46;;;;;;;13.80;10.67;;;;;;;9.52;97.24;98230.55;2169756;81;20999;-85
2022/11/05 05:48:47;;;;;;;12.53;11.33;;;;;;;9.56;96.86;98237.12;2169413;81;21035;-84
2022/11/05 05:51:47;;;;;;;14.13;12.30;;;;;;;9.56;96.86;98238.86;2169187;81;20961;-85
2022/11/05 05:54:48;;;;;;;13.57;12.20;;;;;;;9.58;96.73;98243.65;2169731;81;21029;-85
2022/11/05 05:57:48;;;;;;;15.17;12.53;;;;;;;9.60;96.68;98237.14;2169750;81;20992;-85
2022/11/05 06:00:48;;;;;;;14.30;12.90;;;;;;;9.63;96.64;98251.50;2169378;81;21008;-85
2022/11/05 06:03:49;;;;;;;13.73;12.43;;;;;;;9.70;96.65;98253.27;2169592;81;20965;-84
2022/11/05 06:06:49;;;;;;;17.97;13.93;;;;;;;9.71;96.33;98259.80;2170358;81;20984;-84
2022/11/05 06:09:50;;;;;;;16.57;12.90;;;;;;;9.73;96.23;98265.02;2170624;81;21380;-84
2022/11/05 06:12:50;;;;;;;16.67;12.77;;;;;;;9.75;96.14;98277.20;2170407;81;20913;-84
2022/11/05 06:15:50;;;;;;;14.53;13.00;;;;;;;9.78;96.11;98276.34;2170997;81;20970;-85
2022/11/05 06:18:51;;;;;;;17.97;13.77;;;;;;;9.84;96.25;98272.03;2169456;81;20929;-85
2022/11/05 06:21:51;;;;;;;14.73;13.27;;;;;;;9.89;95.92;98266.41;2168852;81;20996;-84
2022/11/05 06:24:52;;;;;;;13.97;12.67;;;;;;;9.95;95.74;98284.25;2168729;81;21127;-85
2022/11/05 06:27:52;;;;;;;14.70;13.30;;;;;;;9.93;95.34;98266.43;2167526;81;21939;-84
2022/11/05 06:30:52;;;;;;;14.67;13.20;;;;;;;9.97;95.44;98291.22;2168665;81;20980;-83
2022/11/05 06:33:53;;;;;;;14.57;13.07;;;;;;;10.01;95.22;98296.89;2168885;82;21041;-84
2022/11/05 06:36:53;;;;;;;13.93;12.63;;;;;;;10.04;95.21;98302.13;2170538;81;21475;-84
2022/11/05 06:39:56;;;;;;;14.63;13.10;;;;;;;10.07;94.98;98300.84;2170320;81;20928;-84
2022/11/05 06:42:54;;;;;;;13.83;12.43;;;;;;;10.07;94.96;98312.57;2168997;81;20963;-84
2022/11/05 06:45:54;;;;;;;15.17;13.70;;;;;;;10.08;95.03;98315.62;2169366;81;21592;-83
2022/11/05 06:48:55;;;;;;;14.77;13.20;;;;;;;10.08;95.19;98320.84;2168044;81;20964;-83
2022/11/05 06:51:55;;;;;;;15.37;13.77;;;;;;;10.09;95.13;98329.09;2167488;81;20961;-82
2022/11/05 06:54:56;;;;;;;14.80;13.27;;;;;;;10.08;94.98;98332.57;2169651;82;21403;-83
2022/11/05 06:57:58;;;;;;;15.30;13.20;;;;;;;10.06;95.21;98338.20;2168116;81;20997;-84
2022/11/05 07:00:58;;;;;;;16.40;13.10;;;;;;;10.06;95.26;98336.91;2165502;82;20937;-84
2022/11/05 07:04:02;;;;;;;17.87;13.83;;;;;;;10.04;95.35;98338.63;2169138;81;20997;-85
2022/11/05 07:07:02;;;;;;;20.23;14.03;;;;;;;10.05;95.36;98348.63;2170492;82;21522;-85
2022/11/05 07:10:02;;;;;;;15.60;14.00;;;;;;;10.06;95.64;98365.59;2169897;82;20965;-85
2022/11/05 07:13:03;;;;;;;17.40;13.37;;;;;;;10.10;95.57;98371.70;2169883;82;21001;-85
2022/11/05 07:16:03;;;;;;;15.77;13.63;;;;;;;10.09;95.52;98367.34;2170722;81;20961;-85
2022/11/05 07:19:04;;;;;;;14.93;13.33;;;;;;;10.09;95.73;98366.04;2169438;81;20964;-85
2022/11/05 07:22:04;;;;;;;14.70;13.30;;;;;;;10.09;95.66;98367.34;2169801;81;21032;-85
2022/11/05 07:25:05;;;;;;;15.10;13.23;;;;;;;10.10;95.99;98375.17;2168866;81;21076;-84
2022/11/05 07:28:05;;;;;;;17.13;14.13;;;;;;;10.10;95.89;98380.82;2170770;81;20992;-85
2022/11/05 07:31:05;;;;;;;18.07;13.73;;;;;;;10.10;96.28;98384.30;2170618;81;20960;-83
2022/11/05 07:34:06;;;;;;;15.27;13.30;;;;;;;10.13;96.46;98389.53;2172217;81;21368;-85
2022/11/05 07:37:06;;;;;;;15.57;12.97;;;;;;;10.13;96.56;98392.58;2170967;81;20992;-85
2022/11/05 07:40:07;;;;;;;19.40;13.80;;;;;;;10.09;96.93;98398.64;2172653;81;20921;-84
2022/11/05 07:43:10;;;;;;;16.77;13.93;;;;;;;10.04;97.17;98401.21;2172479;81;20917;-84
2022/11/05 07:46:10;;;;;;;19.43;13.63;;;;;;;10.00;97.34;98400.75;2172343;82;20961;-84
2022/11/05 07:49:11;;;;;;;15.97;13.57;;;;;;;10.01;97.67;98405.10;2171749;82;20998;-85
2022/11/05 07:52:11;;;;;;;26.27;17.27;;;;;;;10.01;97.82;98404.23;2171725;81;20941;-85
2022/11/05 07:55:12;;;;;;;29.47;22.43;;;;;;;10.02;98.12;98404.67;2172911;81;20937;-84
2022/11/05 07:58:12;;;;;;;41.77;21.53;;;;;;;10.03;98.24;98401.20;2173329;81;20937;-85
2022/11/05 08:01:12;;;;;;;32.60;19.63;;;;;;;10.04;98.50;98405.12;2172609;82;21004;-84
2022/11/05 08:04:13;;;;;;;29.43;17.90;;;;;;;10.03;98.90;98407.29;2171721;81;20981;-84
2022/11/05 08:07:13;;;;;;;37.07;21.87;;;;;;;10.00;98.99;98409.00;2172267;81;21022;-85
2022/11/05 08:10:13;;;;;;;30.73;22.70;;;;;;;10.01;99.38;98410.75;2172878;81;20937;-82
2022/11/05 08:13:14;;;;;;;33.30;24.47;;;;;;;10.01;99.75;98409.02;2172790;81;21325;-85
2022/11/05 08:16:14;;;;;;;32.23;22.43;;;;;;;10.04;100.00;98414.25;2169361;81;20988;-84
2022/11/05 08:19:15;;;;;;;34.23;21.97;;;;;;;10.03;100.00;98412.94;2171202;81;20953;-85
2022/11/05 08:22:15;;;;;;;31.43;19.93;;;;;;;9.98;100.00;98419.86;2170339;81;21020;-85
2022/11/05 08:25:15;;;;;;;32.40;20.40;;;;;;;9.98;100.00;98420.73;2170021;81;21407;-85
2022/11/05 08:28:16;;;;;;;34.50;23.60;;;;;;;9.95;100.00;98423.74;2169287;81;21000;-85
2022/11/05 08:31:17;;;;;;;34.27;24.07;;;;;;;9.89;100.00;98421.95;2169947;81;20996;-84
2022/11/05 08:34:17;;;;;;;33.30;22.77;;;;;;;9.92;100.00;98428.94;2170896;81;21004;-84
2022/11/05 08:37:17;;;;;;;40.77;24.00;;;;;;;9.90;100.00;98429.80;2170525;81;21423;-84
2022/11/05 08:40:17;;;;;;;34.07;22.77;;;;;;;9.92;100.00;98433.72;2171317;81;21035;-84
2022/11/05 08:43:18;;;;;;;36.77;23.40;;;;;;;9.89;100.00;98431.95;2170895;81;21038;-84
2022/11/05 08:46:18;;;;;;;31.90;21.23;;;;;;;9.85;100.00;98438.01;2169881;81;20996;-84
2022/11/05 08:49:19;;;;;;;33.73;20.70;;;;;;;9.82;100.00;98438.41;2168527;81;20983;-84
2022/11/05 08:52:19;;;;;;;28.03;19.63;;;;;;;9.80;100.00;98439.70;2168713;81;20960;-84
2022/11/05 08:55:20;;;;;;;31.20;21.13;;;;;;;9.87;100.00;98438.89;2168215;81;20995;-84
2022/11/05 08:58:20;;;;;;;29.53;20.90;;;;;;;9.87;100.00;98441.93;2169819;81;20964;-82
2022/11/05 09:01:20;;;;;;;30.70;21.13;;;;;;;9.90;100.00;98438.05;2170188;82;20944;-83
2022/11/05 09:04:21;;;;;;;29.13;19.87;;;;;;;9.96;100.00;98443.73;2169722;81;21004;-83
2022/11/05 09:07:21;;;;;;;34.33;21.00;;;;;;;9.97;100.00;98448.97;2167168;81;21431;-83
2022/11/05 09:10:22;;;;;;;30.07;20.17;;;;;;;10.02;100.00;98447.70;2168244;81;20964;-84
2022/11/05 09:13:22;;;;;;;26.27;20.03;;;;;;;10.02;100.00;98455.09;2169888;81;21282;-83
2022/11/05 09:16:22;;;;;;;28.60;21.30;;;;;;;10.03;100.00;98455.53;2170857;81;21384;-85
2022/11/05 09:19:23;;;;;;;30.43;21.77;;;;;;;10.04;100.00;98461.19;2170810;81;20953;-85
2022/11/05 09:22:23;;;;;;;31.63;21.47;;;;;;;10.06;100.00;98462.08;2170409;81;21011;-84
2022/11/05 09:25:24;;;;;;;30.40;20.67;;;;;;;10.06;100.00;98469.02;2170789;81;20952;-84
2022/11/05 09:28:24;;;;;;;27.90;19.30;;;;;;;10.06;100.00;98466.41;2171521;82;21016;-84
2022/11/05 09:31:24;;;;;;;27.70;18.03;;;;;;;10.04;100.00;98472.92;2178524;82;21047;-84
2022/11/05 09:34:25;;;;;;;20.17;15.23;;;;;;;10.04;100.00;98475.96;2178339;82;21426;-84
2022/11/05 09:37:26;;;;;;;18.23;14.33;;;;;;;9.99;100.00;98482.44;2178226;82;20984;-85
2022/11/05 09:40:26;;;;;;;20.70;14.47;;;;;;;9.92;100.00;98480.64;2169850;81;21016;-84
2022/11/05 09:43:26;;;;;;;17.03;12.57;;;;;;;9.88;100.00;98491.48;2170018;81;20976;-84
2022/11/05 09:46:26;;;;;;;18.47;12.90;;;;;;;9.84;100.00;98492.73;2171145;81;21008;-84
2022/11/05 09:49:27;;;;;;;20.57;13.63;;;;;;;9.81;100.00;98497.92;2170865;81;20953;-84
2022/11/05 09:52:28;;;;;;;20.67;13.67;;;;;;;9.79;100.00;98497.91;2171106;82;20993;-84
2022/11/05 09:55:28;;;;;;;16.97;12.40;;;;;;;9.79;100.00;98508.77;2170492;81;20978;-83
2022/11/05 09:58:29;;;;;;;21.43;14.13;;;;;;;9.77;100.00;98513.09;2169197;81;20937;-83
2022/11/05 10:01:29;;;;;;;17.10;12.13;;;;;;;9.78;100.00;98510.93;2169566;81;21007;-84
2022/11/05 10:04:30;;;;;;;15.67;11.73;;;;;;;9.82;100.00;98514.01;2169373;81;21044;-83
2022/11/05 10:07:30;;;;;;;17.17;10.77;;;;;;;9.84;100.00;98518.38;2169558;81;21067;-84
2022/11/05 10:10:30;;;;;;;19.30;13.57;;;;;;;9.89;100.00;98523.64;2169810;81;21324;-84
2022/11/05 10:13:31;;;;;;;20.93;14.43;;;;;;;9.90;100.00;98525.38;2171178;81;20933;-83
2022/11/05 10:16:31;;;;;;;15.83;13.50;;;;;;;9.93;100.00;98527.14;2171819;81;20890;-82
2022/11/05 10:19:31;;;;;;;17.23;12.90;;;;;;;9.94;100.00;98537.59;2170519;81;20938;-84
2022/11/05 10:22:32;;;;;;;16.43;12.97;;;;;;;9.95;100.00;98539.77;2170308;81;20937;-83
2022/11/05 10:25:32;;;;;;;16.27;12.10;;;;;;;9.94;100.00;98536.28;2169707;81;20949;-84
2022/11/05 10:28:33;;;;;;;12.90;10.47;;;;;;;9.93;100.00;98531.05;2171681;81;21028;-85
2022/11/05 10:31:33;;;;;;;17.40;11.43;;;;;;;9.90;100.00;98532.77;2172926;81;20929;-84
2022/11/05 10:34:33;;;;;;;13.90;10.13;;;;;;;9.89;100.00;98539.28;2173011;81;20999;-84
2022/11/05 10:37:34;;;;;;;12.97;10.10;;;;;;;9.90;100.00;98531.91;2171844;81;21083;-84
2022/11/05 10:40:34;;;;;;;14.57;11.37;;;;;;;9.93;100.00;98530.63;2171834;81;21292;-83
2022/11/05 10:43:35;;;;;;;14.57;12.07;;;;;;;9.95;100.00;98531.52;2171842;81;20953;-82
2022/11/05 10:46:35;;;;;;;15.27;10.03;;;;;;;9.96;100.00;98524.56;2171740;81;21083;-83
2022/11/05 10:49:35;;;;;;;9.83;8.83;;;;;;;10.02;100.00;98530.70;2171638;81;20925;-83
2022/11/05 10:52:37;;;;;;;11.67;9.13;;;;;;;10.01;100.00;98530.70;2171565;81;21044;-83
2022/11/05 10:55:37;;;;;;;11.30;8.07;;;;;;;10.02;100.00;98531.14;2171702;81;20941;-85
2022/11/05 10:58:40;;;;;;;14.43;9.93;;;;;;;10.05;100.00;98537.69;2171742;81;21016;-85
2022/11/05 11:01:38;;;;;;;12.53;9.83;;;;;;;10.07;100.00;98534.23;2171695;81;21292;-84
2022/11/05 11:04:38;;;;;;;14.50;11.13;;;;;;;10.05;100.00;98535.95;2171571;81;21443;-84
2022/11/05 11:07:39;;;;;;;15.80;10.80;;;;;;;10.05;100.00;98543.77;2171502;82;21966;-85
2022/11/05 11:10:39;;;;;;;15.50;11.47;;;;;;;10.03;100.00;98546.80;2170378;81;21028;-83
2022/11/05 11:13:39;;;;;;;13.70;11.47;;;;;;;10.01;100.00;98543.73;2170928;81;20984;-84
2022/11/05 11:16:40;;;;;;;14.20;11.33;;;;;;;10.01;100.00;98545.91;2170500;81;21024;-83
2022/11/05 11:19:40;;;;;;;13.97;12.03;;;;;;;10.07;100.00;98542.05;2170804;81;21003;-82
2022/11/05 11:22:41;;;;;;;15.67;13.17;;;;;;;10.12;100.00;98548.19;2170435;81;21277;-83
2022/11/05 11:25:41;;;;;;;21.83;15.50;;;;;;;10.12;100.00;98549.48;2170249;81;21470;-84
2022/11/05 11:28:41;;;;;;;18.13;14.03;;;;;;;10.16;100.00;98547.35;2171694;81;21051;-83
2022/11/05 11:31:42;;;;;;;21.03;17.03;;;;;;;10.17;100.00;98543.88;2171107;81;20976;-84
2022/11/05 11:34:42;;;;;;;17.93;15.50;;;;;;;10.15;100.00;98553.86;2167985;81;21768;-84
2022/11/05 11:37:43;;;;;;;20.07;14.93;;;;;;;10.14;100.00;98556.02;2167688;81;21043;-84
2022/11/05 11:40:43;;;;;;;24.03;15.60;;;;;;;10.10;100.00;98557.73;2168705;81;21008;-84
2022/11/05 11:43:43;;;;;;;19.50;15.73;;;;;;;10.11;100.00;98558.17;2167744;81;20968;-84
2022/11/05 11:46:44;;;;;;;18.27;14.87;;;;;;;10.15;100.00;98561.25;2168469;81;21652;-83
2022/11/05 11:49:44;;;;;;;20.00;15.10;;;;;;;10.19;100.00;98559.11;2168901;81;21036;-82
2022/11/05 11:52:45;;;;;;;24.63;14.73;;;;;;;10.19;100.00;98559.11;2169421;81;20988;-84
2022/11/05 11:55:45;;;;;;;19.37;14.57;;;;;;;10.20;100.00;98561.33;2169578;81;21004;-84
2022/11/05 11:58:46;;;;;;;19.07;15.30;;;;;;;10.15;100.00;98566.90;2169285;81;20957;-84
2022/11/05 12:01:46;;;;;;;18.53;14.23;;;;;;;10.12;100.00;98566.88;2169984;81;20965;-85
2022/11/05 12:04:46;;;;;;;21.43;15.80;;;;;;;10.11;100.00;98568.61;2169881;81;21008;-83
2022/11/05 12:07:47;;;;;;;19.10;14.17;;;;;;;10.09;100.00;98570.33;2168780;81;21082;-84
2022/11/05 12:10:47;;;;;;;21.10;15.60;;;;;;;10.07;100.00;98569.44;2169916;81;20933;-84
2022/11/05 12:13:47;;;;;;;20.07;14.53;;;;;;;10.08;100.00;98582.05;2170033;81;20945;-84
2022/11/05 12:16:49;;;;;;;16.20;14.47;;;;;;;10.04;100.00;98590.27;2170206;81;21224;-85
2022/11/05 12:19:49;;;;;;;16.50;14.47;;;;;;;10.01;100.00;98595.45;2169868;82;21455;-84
2022/11/05 12:22:49;;;;;;;23.20;15.43;;;;;;;9.97;100.00;98594.98;2170272;81;20999;-85
2022/11/05 12:25:50;;;;;;;18.23;14.37;;;;;;;9.97;100.00;98601.92;2171666;81;21037;-85
2022/11/05 12:28:50;;;;;;;17.07;15.17;;;;;;;9.95;100.00;98607.13;2171559;81;20984;-85
2022/11/05 12:31:51;;;;;;;17.07;15.20;;;;;;;9.94;100.00;98610.59;2172753;81;20929;-85
2022/11/05 12:34:51;;;;;;;18.43;15.00;;;;;;;9.94;100.00;98604.50;2172932;81;20913;-85
2022/11/05 12:37:51;;;;;;;17.00;15.23;;;;;;;9.93;100.00;98615.36;2172850;81;21354;-85
2022/11/05 12:40:52;;;;;;;18.83;14.13;;;;;;;9.93;100.00;98621.87;2171230;81;20921;-85
2022/11/05 12:43:52;;;;;;;18.27;14.63;;;;;;;9.90;100.00;98622.72;2172152;81;20941;-86
2022/11/05 12:46:53;;;;;;;18.37;15.47;;;;;;;9.90;100.00;98624.45;2172937;81;21368;-85
2022/11/05 12:49:53;;;;;;;21.77;14.40;;;;;;;9.93;100.00;98627.09;2173068;81;21005;-86
2022/11/05 12:52:53;;;;;;;20.57;15.10;;;;;;;9.95;100.00;98629.72;2173052;81;20969;-85
2022/11/05 12:55:54;;;;;;;17.87;15.87;;;;;;;9.93;100.00;98632.31;2173691;81;21380;-84
2022/11/05 12:58:54;;;;;;;16.93;15.17;;;;;;;9.94;100.00;98632.75;2171383;81;20981;-85
2022/11/05 13:01:55;;;;;;;18.93;16.17;;;;;;;9.95;100.00;98636.23;2173031;81;20962;-85
2022/11/05 13:04:55;;;;;;;16.63;14.97;;;;;;;9.96;100.00;98641.47;2170950;81;21372;-85
2022/11/05 13:07:55;;;;;;;18.60;15.40;;;;;;;9.95;100.00;98643.63;2171111;81;21075;-84
2022/11/05 13:10:56;;;;;;;18.60;15.53;;;;;;;9.94;100.00;98650.13;2170447;81;20968;-85
2022/11/05 13:13:56;;;;;;;16.67;14.80;;;;;;;9.94;100.00;98654.05;2169912;81;20961;-85
2022/11/05 13:16:57;;;;;;;17.17;15.37;;;;;;;9.93;100.00;98656.20;2171085;81;21371;-84
2022/11/05 13:19:57;;;;;;;17.80;15.70;;;;;;;9.91;100.00;98665.31;2169482;81;21029;-85
2022/11/05 13:22:58;;;;;;;17.80;15.93;;;;;;;9.89;100.00;98655.30;2168452;81;21004;-84
2022/11/05 13:25:58;;;;;;;18.20;15.83;;;;;;;9.90;100.00;98659.22;2169367;81;21000;-84
2022/11/05 13:28:58;;;;;;;26.23;21.80;;;;;;;9.90;100.00;98664.44;2169509;81;21012;-85
2022/11/05 13:32:00;;;;;;;24.83;20.90;;;;;;;9.89;100.00;98670.51;2169640;81;21008;-85
2022/11/05 13:34:59;;;;;;;21.03;18.03;;;;;;;9.88;100.00;98672.67;2171077;81;20949;-86
2022/11/05 13:41:18;;;;;;;26.00;19.20;;;;;;;9.91;100.00;98675.73;2171066;82;20949;-86
2022/11/05 13:44:19;;;;;;;24.67;18.87;;;;;;;9.92;100.00;98677.92;2170744;81;20957;-86
2022/11/05 13:47:19;;;;;;;25.57;19.00;;;;;;;9.94;100.00;98680.98;2170251;81;20937;-85
2022/11/05 13:50:20;;;;;;;21.27;17.43;;;;;;;12.33;100.00;98669.73;2171527;81;20938;-87
2022/11/05 13:53:20;;;;;;;21.17;15.27;;;;;;;12.22;100.00;98674.06;2172218;81;20965;-86
2022/11/05 13:56:20;;;;;;;22.10;16.43;;;;;;;11.64;99.51;98682.94;2171104;81;20913;-85
2022/11/05 13:59:21;;;;;;;20.53;16.17;;;;;;;11.17;98.91;98685.24;2171229;81;20949;-86
2022/11/05 14:02:21;;;;;;;18.03;15.23;;;;;;;10.88;99.23;98688.07;2172750;81;20969;-86
2022/11/05 14:05:22;;;;;;;15.30;13.80;;;;;;;10.65;100.00;98692.66;2171467;82;21055;-85
2022/11/05 14:08:22;;;;;;;16.23;14.60;;;;;;;10.51;100.00;98707.32;2170164;82;21020;-85
2022/11/05 14:11:22;;;;;;;16.80;14.97;;;;;;;10.44;100.00;98713.34;2172715;81;20921;-84
2022/11/05 14:14:23;;;;;;;20.83;16.43;;;;;;;10.37;100.00;98720.19;2171445;81;20979;-85
2022/11/05 14:17:23;;;;;;;17.67;15.77;;;;;;;10.31;100.00;98711.42;2171481;81;21210;-85
2022/11/05 14:20:24;;;;;;;29.60;21.30;;;;;;;10.25;100.00;98715.27;2170634;81;20940;-86
2022/11/05 14:23:24;;;;;;;30.47;21.33;;;;;;;10.21;100.00;98720.89;2172197;81;20997;-85
2022/11/05 14:26:24;;;;;;;35.17;24.43;;;;;;;10.17;100.00;98717.33;2171500;81;21008;-85
2022/11/05 14:29:25;;;;;;;49.20;26.73;;;;;;;10.16;100.00;98723.41;2171411;81;21010;-86